Time,TemperatureF,DewpointF,PressureIn,WindDirection,WindDirectionDegrees,WindSpeedMPH,WindSpeedGustMPH,Humidity,HourlyPrecipIn,Conditions,Clouds,dailyrainin,SoftwareType,DateUTC
2013-06-05 00:12:00,60.5,37.0,29.92,SE,124,0.0,1.0,42,0.00,,,0.00,weatherlink.com 1.10,2013-06-05 07:12:00,
2013-06-05 00:27:00,59.9,37.0,29.91,East,84,0.0,2.0,43,0.00,,,0.00,weatherlink.com 1.10,2013-06-05 07:27:00,
2013-06-05 00:42:00,59.2,37.0,29.92,East,83,0.0,0.0,44,0.00,,,0.00,weatherlink.com 1.10,2013-06-05 07:42:00,
2013-06-05 00:57:00,59.0,37.0,29.92,SE,139,1.0,1.0,44,0.00,,,0.00,weatherlink.com 1.10,2013-06-05 07:57:00,
2013-06-05 01:12:00,59.0,37.0,29.92,SE,138,0.0,1.0,44,0.00,,,0.00,weatherlink.com 1.10,2013-06-05 08:12:00,
2013-06-05 01:27:00,59.2,36.0,29.92,SE,138,0.0,0.0,43,0.00,,,0.00,weatherlink.com 1.10,2013-06-05 08:27:00,
2013-06-05 01:42:00,59.5,36.0,29.91,ESE,121,0.0,0.0,42,0.00,,,0.00,weatherlink.com 1.10,2013-06-05 08:42:00,
2013-06-05 01:57:00,59.6,36.0,29.91,ESE,107,2.0,2.0,41,0.00,,,0.00,weatherlink.com 1.10,2013-06-05 08:57:00,
2013-06-05 02:12:00,60.1,36.0,29.91,ESE,110,0.0,2.0,40,0.00,,,0.00,weatherlink.com 1.10,2013-06-05 09:12:00,
2013-06-05 02:27:00,59.0,35.0,29.92,ESE,111,0.0,0.0,41,0.00,,,0.00,weatherlink.com 1.10,2013-06-05 09:27:00,
2013-06-05 02:42:00,58.6,35.0,29.91,ESE,110,1.0,1.0,42,0.00,,,0.00,weatherlink.com 1.10,2013-06-05 09:42:00,
2013-06-05 02:57:00,59.1,35.0,29.91,SE,124,1.0,1.0,41,0.00,,,0.00,weatherlink.com 1.10,2013-06-05 09:57:00,
2013-06-05 03:12:00,58.3,35.0,29.92,SE,124,0.0,0.0,42,0.00,,,0.00,weatherlink.com 1.10,2013-06-05 10:12:00,
2013-06-05 03:27:00,57.0,35.0,29.92,SE,124,0.0,0.0,44,0.00,,,0.00,weatherlink.com 1.10,2013-06-05 10:27:00,
2013-06-05 03:42:00,56.7,35.0,29.91,SE,124,0.0,0.0,45,0.00,,,0.00,weatherlink.com 1.10,2013-06-05 10:42:00,
2013-06-05 03:57:00,56.7,36.0,29.92,SE,124,0.0,1.0,46,0.00,,,0.00,weatherlink.com 1.10,2013-06-05 10:57:00,
2013-06-05 04:12:00,57.2,37.0,29.92,ESE,121,0.0,1.0,47,0.00,,,0.00,weatherlink.com 1.10,2013-06-05 11:12:00,
2013-06-05 04:27:00,56.9,37.0,29.91,ESE,120,0.0,1.0,48,0.00,,,0.00,weatherlink.com 1.10,2013-06-05 11:27:00,
2013-06-05 04:42:00,57.0,37.0,29.91,ESE,106,1.0,2.0,48,0.00,,,0.00,weatherlink.com 1.10,2013-06-05 11:42:00,
2013-06-05 04:57:00,57.4,38.0,29.91,ESE,105,0.0,1.0,48,0.00,,,0.00,weatherlink.com 1.10,2013-06-05 11:57:00,
2013-06-05 05:12:00,57.7,37.0,29.91,ESE,105,0.0,1.0,47,0.00,,,0.00,weatherlink.com 1.10,2013-06-05 12:12:00,
2013-06-05 05:27:00,57.7,38.0,29.91,ESE,105,0.0,1.0,48,0.00,,,0.00,weatherlink.com 1.10,2013-06-05 12:27:00,
2013-06-05 05:42:00,57.2,37.0,29.91,ESE,105,0.0,1.0,48,0.00,,,0.00,weatherlink.com 1.10,2013-06-05 12:42:00,
2013-06-05 05:57:00,56.7,38.0,29.92,ESE,105,0.0,1.0,49,0.00,,,0.00,weatherlink.com 1.10,2013-06-05 12:57:00,
2013-06-05 06:12:00,56.9,38.0,29.91,ESE,105,0.0,1.0,49,0.00,,,0.00,weatherlink.com 1.10,2013-06-05 13:12:00,
2013-06-05 06:27:00,57.0,38.0,29.92,ESE,106,0.0,0.0,50,0.00,,,0.00,weatherlink.com 1.10,2013-06-05 13:27:00,
2013-06-05 06:42:00,56.8,38.0,29.92,ESE,105,0.0,0.0,50,0.00,,,0.00,weatherlink.com 1.10,2013-06-05 13:42:00,
2013-06-05 06:57:00,56.9,38.0,29.92,ESE,105,0.0,0.0,50,0.00,,,0.00,weatherlink.com 1.10,2013-06-05 13:57:00,
2013-06-05 07:12:00,58.8,41.0,29.92,ESE,105,0.0,0.0,52,0.00,,,0.00,weatherlink.com 1.10,2013-06-05 14:12:00,
2013-06-05 07:27:00,61.1,41.0,29.92,ESE,105,0.0,0.0,48,0.00,,,0.00,weatherlink.com 1.10,2013-06-05 14:27:00,
2013-06-05 07:42:00,63.7,41.0,29.93,SE,141,0.0,1.0,44,0.00,,,0.00,weatherlink.com 1.10,2013-06-05 14:42:00,
2013-06-05 07:58:00,66.1,41.0,29.92,WSW,248,1.0,1.0,40,0.00,,,0.00,weatherlink.com 1.10,2013-06-05 14:58:00,
2013-06-05 08:13:00,65.1,40.0,29.92,SSW,208,2.0,3.0,40,0.00,,,0.00,weatherlink.com 1.10,2013-06-05 15:13:00,
2013-06-05 08:28:00,65.1,39.0,29.92,SW,217,3.0,4.0,39,0.00,,,0.00,weatherlink.com 1.10,2013-06-05 15:28:00,
2013-06-05 08:43:00,65.8,41.0,29.91,SSE,155,1.0,5.0,40,0.00,,,0.00,weatherlink.com 1.10,2013-06-05 15:43:00,
2013-06-05 08:58:00,66.2,42.0,29.92,South,174,3.0,6.0,41,0.00,,,0.00,weatherlink.com 1.10,2013-06-05 15:58:00,
2013-06-05 09:13:00,67.0,41.0,29.92,SE,145,1.0,5.0,39,0.00,,,0.00,weatherlink.com 1.10,2013-06-05 16:13:00,
2013-06-05 09:28:00,67.7,38.0,29.92,NE,51,0.0,3.0,34,0.00,,,0.00,weatherlink.com 1.10,2013-06-05 16:28:00,
2013-06-05 09:43:00,68.4,39.0,29.92,NNE,18,3.0,4.0,34,0.00,,,0.00,weatherlink.com 1.10,2013-06-05 16:43:00,
2013-06-05 09:58:00,69.0,40.0,29.92,WNW,301,1.0,7.0,35,0.00,,,0.00,weatherlink.com 1.10,2013-06-05 16:58:00,
2013-06-05 10:13:00,69.2,40.0,29.91,NW,326,3.0,9.0,34,0.00,,,0.00,weatherlink.com 1.10,2013-06-05 17:13:00,
2013-06-05 10:28:00,69.6,40.0,29.91,North,1,1.0,6.0,34,0.00,,,0.00,weatherlink.com 1.10,2013-06-05 17:28:00,
2013-06-05 10:43:00,70.3,39.0,29.91,SE,143,2.0,6.0,32,0.00,,,0.00,weatherlink.com 1.10,2013-06-05 17:43:00,
2013-06-05 10:58:00,71.0,40.0,29.91,WNW,301,2.0,4.0,33,0.00,,,0.00,weatherlink.com 1.10,2013-06-05 17:58:00,
2013-06-05 11:13:00,71.7,39.0,29.90,NNW,345,1.0,5.0,31,0.00,,,0.00,weatherlink.com 1.10,2013-06-05 18:13:00,
2013-06-05 11:28:00,72.7,39.0,29.90,West,271,1.0,6.0,30,0.00,,,0.00,weatherlink.com 1.10,2013-06-05 18:28:00,
2013-06-05 11:43:00,73.2,40.0,29.90,West,267,4.0,5.0,30,0.00,,,0.00,weatherlink.com 1.10,2013-06-05 18:43:00,
2013-06-05 11:58:00,73.7,40.0,29.90,WNW,287,3.0,3.0,30,0.00,,,0.00,weatherlink.com 1.10,2013-06-05 18:58:00,
2013-06-05 12:14:00,73.7,38.0,29.90,SSW,201,0.0,10.0,27,0.00,,,0.00,weatherlink.com 1.10,2013-06-05 19:14:00,
2013-06-05 12:28:00,74.9,37.0,29.90,SW,225,2.0,8.0,25,0.00,,,0.00,weatherlink.com 1.10,2013-06-05 19:28:00,
2013-06-05 12:43:00,75.5,37.0,29.89,WNW,290,6.0,7.0,25,0.00,,,0.00,weatherlink.com 1.10,2013-06-05 19:43:00,
2013-06-05 12:58:00,76.2,37.0,29.89,ENE,58,1.0,9.0,24,0.00,,,0.00,weatherlink.com 1.10,2013-06-05 19:58:00,
2013-06-05 13:13:00,76.2,36.0,29.89,WNW,293,5.0,6.0,23,0.00,,,0.00,weatherlink.com 1.10,2013-06-05 20:13:00,
2013-06-05 13:28:00,76.3,37.0,29.88,WNW,292,3.0,8.0,24,0.00,,,0.00,weatherlink.com 1.10,2013-06-05 20:28:00,
2013-06-05 13:43:00,77.7,40.0,29.88,West,267,3.0,8.0,26,0.00,,,0.00,weatherlink.com 1.10,2013-06-05 20:43:00,
2013-06-05 13:58:00,77.7,39.0,29.88,WNW,294,4.0,9.0,25,0.00,,,0.00,weatherlink.com 1.10,2013-06-05 20:58:00,
2013-06-05 14:13:00,77.7,38.0,29.87,West,260,1.0,7.0,24,0.00,,,0.00,weatherlink.com 1.10,2013-06-05 21:13:00,
2013-06-05 14:28:00,79.7,40.0,29.87,WNW,292,6.0,8.0,24,0.00,,,0.00,weatherlink.com 1.10,2013-06-05 21:28:00,
2013-06-05 14:43:00,79.0,40.0,29.86,NW,321,2.0,7.0,25,0.00,,,0.00,weatherlink.com 1.10,2013-06-05 21:43:00,
2013-06-05 14:58:00,79.5,37.0,29.86,WNW,294,3.0,10.0,22,0.00,,,0.00,weatherlink.com 1.10,2013-06-05 21:58:00,
2013-06-05 15:14:00,79.8,39.0,29.85,North,351,6.0,9.0,23,0.00,,,0.00,weatherlink.com 1.10,2013-06-05 22:14:00,
2013-06-05 15:29:00,80.4,38.0,29.85,NW,323,2.0,7.0,22,0.00,,,0.00,weatherlink.com 1.10,2013-06-05 22:29:00,
2013-06-05 15:44:00,79.9,38.0,29.84,NW,304,5.0,6.0,22,0.00,,,0.00,weatherlink.com 1.10,2013-06-05 22:44:00,
2013-06-05 15:59:00,80.5,39.0,29.84,North,11,3.0,9.0,23,0.00,,,0.00,weatherlink.com 1.10,2013-06-05 22:59:00,
2013-06-05 16:14:00,80.7,41.0,29.83,NW,319,1.0,8.0,24,0.00,,,0.00,weatherlink.com 1.10,2013-06-05 23:14:00,
2013-06-05 16:29:00,81.0,41.0,29.83,NNW,331,5.0,9.0,24,0.00,,,0.00,weatherlink.com 1.10,2013-06-05 23:29:00,
2013-06-05 16:44:00,80.5,42.0,29.82,West,276,2.0,8.0,25,0.00,,,0.00,weatherlink.com 1.10,2013-06-05 23:44:00,
2013-06-05 16:59:00,81.0,42.0,29.82,NNE,18,4.0,9.0,25,0.00,,,0.00,weatherlink.com 1.10,2013-06-05 23:59:00,
2013-06-05 17:14:00,81.6,43.0,29.82,WNW,290,4.0,10.0,26,0.00,,,0.00,weatherlink.com 1.10,2013-06-06 00:14:00,
2013-06-05 17:29:00,80.9,43.0,29.81,NW,318,3.0,7.0,26,0.00,,,0.00,weatherlink.com 1.10,2013-06-06 00:29:00,
2013-06-05 17:44:00,81.1,42.0,29.81,NNW,347,4.0,10.0,25,0.00,,,0.00,weatherlink.com 1.10,2013-06-06 00:44:00,
2013-06-05 17:59:00,80.4,42.0,29.80,WNW,287,6.0,10.0,26,0.00,,,0.00,weatherlink.com 1.10,2013-06-06 00:59:00,
2013-06-05 18:14:00,80.7,43.0,29.80,NW,323,2.0,7.0,26,0.00,,,0.00,weatherlink.com 1.10,2013-06-06 01:14:00,
2013-06-05 18:29:00,81.0,43.0,29.80,NNW,334,3.0,7.0,26,0.00,,,0.00,weatherlink.com 1.10,2013-06-06 01:29:00,
2013-06-05 18:44:00,80.3,43.0,29.80,NNW,335,6.0,8.0,27,0.00,,,0.00,weatherlink.com 1.10,2013-06-06 01:44:00,
2013-06-05 18:59:00,79.4,43.0,29.80,NNW,335,2.0,5.0,27,0.00,,,0.00,weatherlink.com 1.10,2013-06-06 01:59:00,
2013-06-05 19:14:00,78.8,43.0,29.80,NNW,328,4.0,5.0,28,0.00,,,0.00,weatherlink.com 1.10,2013-06-06 02:14:00,
2013-06-05 19:29:00,78.5,43.0,29.79,WNW,301,5.0,5.0,28,0.00,,,0.00,weatherlink.com 1.10,2013-06-06 02:29:00,
2013-06-05 19:44:00,78.4,43.0,29.79,NNW,335,3.0,7.0,28,0.00,,,0.00,weatherlink.com 1.10,2013-06-06 02:44:00,
2013-06-05 20:00:00,77.0,42.0,29.80,NNW,333,4.0,10.0,29,0.00,,,0.00,weatherlink.com 1.10,2013-06-06 03:00:00,
2013-06-05 20:15:00,74.4,45.0,29.80,North,354,5.0,13.0,35,0.00,,,0.00,weatherlink.com 1.10,2013-06-06 03:15:00,
2013-06-05 20:30:00,72.2,45.0,29.80,NNW,336,1.0,9.0,38,0.00,,,0.00,weatherlink.com 1.10,2013-06-06 03:30:00,
2013-06-05 20:45:00,70.5,45.0,29.80,NW,312,1.0,9.0,40,0.00,,,0.00,weatherlink.com 1.10,2013-06-06 03:45:00,
2013-06-05 21:00:00,69.4,45.0,29.81,NNE,15,0.0,6.0,41,0.00,,,0.00,weatherlink.com 1.10,2013-06-06 04:00:00,
2013-06-05 21:15:00,68.2,44.0,29.82,NNE,13,0.0,4.0,42,0.00,,,0.00,weatherlink.com 1.10,2013-06-06 04:15:00,
2013-06-05 21:30:00,67.8,44.0,29.82,NNE,16,0.0,4.0,42,0.00,,,0.00,weatherlink.com 1.10,2013-06-06 04:30:00,
2013-06-05 21:45:00,67.5,44.0,29.82,NNE,23,0.0,3.0,43,0.00,,,0.00,weatherlink.com 1.10,2013-06-06 04:45:00,
2013-06-05 22:00:00,66.0,44.0,29.82,West,274,0.0,4.0,45,0.00,,,0.00,weatherlink.com 1.10,2013-06-06 05:00:00,
2013-06-05 22:15:00,65.3,43.0,29.82,North,356,1.0,3.0,45,0.00,,,0.00,weatherlink.com 1.10,2013-06-06 05:15:00,
2013-06-05 22:30:00,65.2,43.0,29.82,East,79,0.0,3.0,45,0.00,,,0.00,weatherlink.com 1.10,2013-06-06 05:30:00,
2013-06-05 22:45:00,64.4,43.0,29.82,NNE,14,0.0,1.0,46,0.00,,,0.00,weatherlink.com 1.10,2013-06-06 05:45:00,
2013-06-05 23:00:00,62.8,43.0,29.83,SSE,152,1.0,2.0,49,0.00,,,0.00,weatherlink.com 1.10,2013-06-06 06:00:00,
2013-06-05 23:15:00,62.2,43.0,29.83,West,280,0.0,1.0,50,0.00,,,0.00,weatherlink.com 1.10,2013-06-06 06:15:00,
2013-06-05 23:30:00,61.6,43.0,29.83,South,190,0.0,1.0,51,0.00,,,0.00,weatherlink.com 1.10,2013-06-06 06:30:00,
2013-06-05 23:45:00,60.8,43.0,29.83,South,190,0.0,0.0,52,0.00,,,0.00,weatherlink.com 1.10,2013-06-06 06:45:00,